createdAt,value
2018-08-24T00:00:47.008Z,7.40
2018-08-24T00:03:16.493Z,6.80
2018-08-24T00:05:45.973Z,8.93
2018-08-24T00:08:15.567Z,6.43
2018-08-24T00:10:44.924Z,4.77
2018-08-24T00:13:14.161Z,3.80
2018-08-24T00:15:44.048Z,3.03
2018-08-24T00:18:13.397Z,2.23
2018-08-24T00:20:42.713Z,2.40
2018-08-24T00:23:11.949Z,2.27
2018-08-24T00:25:41.699Z,2.30
2018-08-24T00:28:11.356Z,2.20
2018-08-24T00:30:40.615Z,2.00
2018-08-24T00:33:09.833Z,1.90
2018-08-24T00:35:39.664Z,1.97
2018-08-24T00:38:08.904Z,1.90
2018-08-24T00:40:38.201Z,2.10
2018-08-24T00:43:07.816Z,1.53
2018-08-24T00:45:37.128Z,1.60
2018-08-24T00:48:06.602Z,1.40
2018-08-24T00:50:36.445Z,1.83
2018-08-24T00:53:05.687Z,2.30
2018-08-24T00:55:34.917Z,2.57
2018-08-24T00:58:04.669Z,2.40
2018-08-24T01:00:39.369Z,2.37
2018-08-24T01:03:08.971Z,1.80
2018-08-24T01:05:38.215Z,2.43
2018-08-24T01:08:07.559Z,2.20
2018-08-24T01:10:37.733Z,2.13
2018-08-24T01:13:16.691Z,1.90
2018-08-24T01:15:55.252Z,2.87
2018-08-24T01:18:31.385Z,2.63
2018-08-24T01:21:01.140Z,2.80
2018-08-24T01:23:33.508Z,2.17
2018-08-24T01:26:02.752Z,3.23
2018-08-24T01:28:32.755Z,3.77
2018-08-24T01:31:08.110Z,2.90
2018-08-24T01:33:38.197Z,3.60
2018-08-24T01:36:07.820Z,3.50
2018-08-24T01:38:37.280Z,3.70
2018-08-24T01:41:06.611Z,3.50
2018-08-24T01:43:35.966Z,3.47
2018-08-24T01:46:15.192Z,3.60
2018-08-24T01:48:44.575Z,3.97
2018-08-24T01:51:13.951Z,4.33
2018-08-24T01:53:43.709Z,4.20
2018-08-24T01:56:13.324Z,5.00
2018-08-24T01:58:42.795Z,4.17
2018-08-24T02:01:16.914Z,4.20
2018-08-24T02:03:46.359Z,3.70
2018-08-24T02:06:15.985Z,4.67
2018-08-24T02:08:45.388Z,4.17
2018-08-24T02:11:20.100Z,3.80
2018-08-24T02:13:54.637Z,4.33
2018-08-24T02:16:24.170Z,4.27
2018-08-24T02:18:59.040Z,3.57
2018-08-24T02:21:33.831Z,4.00
2018-08-24T02:24:03.201Z,4.03
2018-08-24T02:26:32.932Z,3.87
2018-08-24T02:29:03.040Z,3.83
2018-08-24T02:31:39.385Z,3.57
2018-08-24T02:34:09.133Z,3.63
2018-08-24T02:36:38.517Z,3.77
2018-08-24T02:39:11.775Z,3.60
2018-08-24T02:41:41.680Z,4.70
2018-08-24T02:44:11.408Z,4.80
2018-08-24T02:46:41.932Z,4.63
2018-08-24T02:49:11.564Z,4.37
2018-08-24T02:51:41.304Z,4.80
2018-08-24T02:54:10.957Z,4.73
2018-08-24T02:56:40.350Z,4.50
2018-08-24T02:59:09.710Z,4.77
2018-08-24T03:01:39.309Z,5.20
2018-08-24T03:04:08.672Z,4.97
2018-08-24T03:06:38.397Z,4.70
2018-08-24T03:09:10.292Z,4.03
2018-08-24T03:11:39.706Z,5.07
2018-08-24T03:14:09.176Z,5.33
2018-08-24T03:16:38.936Z,4.70
2018-08-24T03:19:08.324Z,5.30
2018-08-24T03:21:37.984Z,5.30
2018-08-24T03:24:07.675Z,5.70
2018-08-24T03:26:37.030Z,5.10
2018-08-24T03:29:06.398Z,5.77
2018-08-24T03:31:36.192Z,5.80
2018-08-24T03:34:05.600Z,4.90
2018-08-24T03:36:34.988Z,5.20
2018-08-24T03:39:05.700Z,5.10
2018-08-24T03:41:35.088Z,5.50
2018-08-24T03:44:04.498Z,5.87
2018-08-24T03:46:34.452Z,5.30
2018-08-24T03:49:03.856Z,5.10
2018-08-24T03:51:33.313Z,5.13
2018-08-24T03:54:06.914Z,5.40
2018-08-24T03:56:36.332Z,5.20
2018-08-24T03:59:05.755Z,5.40
2018-08-24T04:01:35.482Z,5.60
2018-08-24T04:04:05.241Z,5.20
2018-08-24T04:06:34.900Z,5.40
2018-08-24T04:09:05.128Z,6.23
2018-08-24T04:11:34.787Z,5.50
2018-08-24T04:14:04.462Z,5.60
2018-08-24T04:16:40.068Z,6.37
2018-08-24T04:19:17.173Z,6.40
2018-08-24T04:21:47.408Z,7.10
2018-08-24T04:24:16.840Z,7.10
2018-08-24T04:26:46.248Z,6.80
2018-08-24T04:29:16.112Z,7.60
2018-08-24T04:31:45.515Z,7.13
2018-08-24T04:34:15.294Z,7.13
2018-08-24T04:36:45.067Z,7.10
2018-08-24T04:39:14.949Z,7.80
2018-08-24T04:41:44.922Z,7.33
2018-08-24T04:44:14.471Z,8.57
2018-08-24T04:46:44.348Z,8.17
2018-08-24T04:49:14.064Z,8.10
2018-08-24T04:51:43.831Z,8.27
2018-08-24T04:54:13.536Z,8.70
2018-08-24T04:56:42.928Z,8.17
2018-08-24T04:59:12.508Z,8.00
2018-08-24T05:01:43.596Z,7.40
2018-08-24T05:04:15.707Z,8.77
2018-08-24T05:06:45.237Z,7.90
2018-08-24T05:09:14.840Z,7.63
2018-08-24T05:11:44.482Z,8.23
2018-08-24T05:14:14.233Z,7.43
2018-08-24T05:16:44.037Z,8.40
2018-08-24T05:19:13.772Z,8.13
2018-08-24T05:21:43.820Z,9.20
2018-08-24T05:24:14.134Z,8.17
2018-08-24T05:26:58.218Z,8.13
2018-08-24T05:29:39.988Z,8.77
2018-08-24T05:32:09.900Z,7.40
2018-08-24T05:34:39.636Z,8.00
2018-08-24T05:37:09.498Z,9.40
2018-08-24T05:39:39.257Z,8.07
2018-08-24T05:42:08.848Z,7.73
2018-08-24T05:44:38.693Z,9.43
2018-08-24T05:47:09.640Z,8.73
2018-08-24T05:49:39.212Z,8.07
2018-08-24T05:52:08.686Z,8.40
2018-08-24T05:54:38.702Z,8.80
2018-08-24T05:57:08.195Z,8.77
2018-08-24T05:59:37.709Z,7.90
2018-08-24T06:02:07.453Z,8.27
2018-08-24T06:04:37.338Z,9.13
2018-08-24T06:07:06.922Z,8.80
2018-08-24T06:09:36.608Z,8.13
2018-08-24T06:12:06.502Z,8.73
2018-08-24T06:14:36.140Z,9.60
2018-08-24T06:17:11.344Z,8.70
2018-08-24T06:19:40.849Z,8.03
2018-08-24T06:22:10.500Z,9.30
2018-08-24T06:24:40.102Z,11.70
2018-08-24T06:27:09.844Z,10.73
2018-08-24T06:29:39.655Z,10.80
2018-08-24T06:32:09.736Z,12.90
2018-08-24T06:34:39.315Z,11.53
2018-08-24T06:37:09.194Z,13.37
2018-08-24T06:39:38.865Z,14.23
2018-08-24T06:42:08.656Z,13.70
2018-08-24T06:44:38.285Z,14.90
2018-08-24T06:47:08.228Z,13.53
2018-08-24T06:49:37.889Z,14.30
2018-08-24T06:52:07.472Z,15.83
2018-08-24T06:54:37.562Z,15.57
2018-08-24T06:57:07.167Z,15.53
2018-08-24T06:59:37.068Z,16.23
2018-08-24T07:02:06.970Z,16.10
2018-08-24T07:04:36.805Z,15.30
2018-08-24T07:07:06.418Z,14.90
2018-08-24T07:09:38.708Z,15.67
2018-08-24T07:12:10.641Z,16.20
2018-08-24T07:14:40.720Z,16.37
2018-08-24T07:17:10.363Z,17.37
2018-08-24T07:19:40.317Z,18.73
2018-08-24T07:22:10.031Z,18.20
2018-08-24T07:24:40.590Z,19.73
2018-08-24T07:27:10.099Z,20.00
2018-08-24T07:29:39.921Z,19.87
2018-08-24T07:32:09.537Z,20.43
2018-08-24T07:34:39.245Z,19.30
2018-08-24T07:37:09.005Z,19.50
2018-08-24T07:39:38.561Z,19.90
2018-08-24T07:42:08.288Z,22.10
2018-08-24T07:44:43.330Z,23.20
2018-08-24T07:47:13.072Z,22.30
2018-08-24T07:49:42.636Z,22.83
2018-08-24T07:52:12.708Z,23.40
2018-08-24T07:54:42.468Z,22.70
2018-08-24T07:57:12.345Z,23.10
2018-08-24T07:59:49.117Z,23.90
2018-08-24T08:02:19.073Z,22.33
2018-08-24T08:04:49.760Z,19.70
2018-08-24T08:07:19.751Z,16.23
2018-08-24T08:09:49.559Z,15.10
2018-08-24T08:12:19.335Z,16.93
2018-08-24T08:14:54.340Z,18.77
2018-08-24T08:17:24.071Z,17.03
2018-08-24T08:19:53.897Z,17.87
2018-08-24T08:22:23.567Z,19.63
2018-08-24T08:24:53.132Z,18.93
2018-08-24T08:27:22.856Z,18.10
2018-08-24T08:30:00.168Z,19.30
2018-08-24T08:32:30.730Z,17.67
2018-08-24T08:35:00.416Z,16.10
2018-08-24T08:37:30.249Z,14.90
2018-08-24T08:40:01.004Z,15.87
2018-08-24T08:42:30.812Z,14.80
2018-08-24T08:45:00.624Z,13.23
2018-08-24T08:47:30.565Z,11.87
2018-08-24T08:50:00.212Z,12.30
2018-08-24T08:52:29.809Z,11.00
2018-08-24T08:54:59.444Z,9.97
2018-08-24T08:57:29.186Z,9.80
2018-08-24T08:59:58.826Z,10.77
2018-08-24T09:02:29.015Z,9.73
2018-08-24T09:04:58.652Z,9.43
2018-08-24T09:07:28.431Z,8.10
2018-08-24T09:09:58.759Z,9.20
2018-08-24T09:12:28.687Z,8.23
2018-08-24T09:14:58.409Z,8.40
2018-08-24T09:17:33.426Z,8.40
2018-08-24T09:20:08.372Z,7.47
2018-08-24T09:22:44.151Z,6.80
2018-08-24T09:25:20.010Z,7.23
2018-08-24T09:27:54.965Z,7.80
2018-08-24T09:30:25.781Z,6.97
2018-08-24T09:32:55.825Z,7.13
2018-08-24T09:35:25.753Z,6.80
2018-08-24T09:37:55.608Z,7.97
2018-08-24T09:40:31.036Z,7.20
2018-08-24T09:43:07.580Z,6.20
2018-08-24T09:45:37.406Z,6.70
2018-08-24T09:48:13.203Z,5.90
2018-08-24T09:51:51.385Z,4.93
2018-08-24T09:54:21.096Z,4.40
2018-08-24T09:56:50.811Z,3.80
2018-08-24T09:59:20.805Z,3.20
2018-08-24T10:02:58.615Z,3.07
2018-08-24T10:05:34.973Z,2.70
2018-08-24T10:08:09.911Z,2.93
2018-08-24T10:10:39.773Z,3.43
2018-08-24T10:13:09.667Z,3.23
2018-08-24T10:15:39.424Z,3.27
2018-08-24T10:18:08.999Z,3.20
2018-08-24T10:20:39.061Z,3.87
2018-08-24T10:23:09.289Z,2.93
2018-08-24T10:25:39.092Z,3.23
2018-08-24T10:28:08.733Z,3.60
2018-08-24T10:30:38.906Z,3.27
2018-08-24T10:33:08.929Z,2.97
2018-08-24T10:35:38.641Z,3.30
2018-08-24T10:38:08.284Z,2.80
2018-08-24T10:40:38.269Z,2.80
2018-08-24T10:43:08.144Z,4.23
2018-08-24T10:45:37.971Z,3.60
2018-08-24T10:48:08.150Z,3.30
2018-08-24T10:50:37.817Z,2.87
2018-08-24T10:53:07.557Z,2.57
2018-08-24T10:55:37.708Z,2.80
2018-08-24T10:58:07.341Z,2.40
2018-08-24T11:00:37.341Z,3.00
2018-08-24T11:03:07.497Z,2.80
2018-08-24T11:05:37.060Z,2.40
2018-08-24T11:08:06.913Z,2.40
2018-08-24T11:10:37.524Z,2.80
2018-08-24T11:13:07.333Z,2.70
2018-08-24T11:15:37.677Z,3.33
2018-08-24T11:18:08.943Z,2.90
2018-08-24T11:20:41.733Z,3.13
2018-08-24T11:23:11.511Z,2.80
2018-08-24T11:25:41.090Z,2.97
2018-08-24T11:28:10.964Z,2.60
2018-08-24T11:30:42.045Z,2.67
2018-08-24T11:33:11.613Z,2.60
2018-08-24T11:35:41.783Z,2.70
2018-08-24T11:38:11.376Z,2.70
2018-08-24T11:40:40.883Z,2.30
2018-08-24T11:43:10.769Z,2.30
2018-08-24T11:45:40.665Z,2.30
2018-08-24T11:48:10.473Z,2.00
2018-08-24T11:50:40.400Z,2.10
2018-08-24T11:53:10.627Z,2.60
2018-08-24T11:55:40.274Z,2.90
2018-08-24T11:58:10.091Z,2.20
2018-08-24T12:00:39.942Z,2.50
2018-08-24T12:03:09.949Z,2.43
2018-08-24T12:05:39.929Z,2.30
2018-08-24T12:08:10.146Z,2.20
2018-08-24T12:10:40.919Z,1.80
2018-08-24T12:13:10.684Z,2.33
2018-08-24T12:15:40.848Z,1.60
2018-08-24T12:18:10.938Z,1.53
2018-08-24T12:20:41.101Z,2.40
2018-08-24T12:23:11.036Z,2.07
2018-08-24T12:25:41.009Z,1.77
2018-08-24T12:28:10.744Z,1.87
2018-08-24T12:30:40.774Z,1.40
2018-08-24T12:33:10.389Z,1.80
2018-08-24T12:35:40.052Z,1.93
2018-08-24T12:38:10.003Z,1.73
2018-08-24T12:40:40.435Z,1.63
2018-08-24T12:43:12.201Z,1.77
2018-08-24T12:45:41.941Z,1.67
2018-08-24T12:48:11.824Z,1.90
2018-08-24T12:50:41.641Z,1.63
2018-08-24T12:53:11.306Z,1.90
2018-08-24T12:55:41.440Z,1.90
2018-08-24T12:58:11.215Z,1.90
2018-08-24T13:00:41.655Z,1.87
2018-08-24T13:03:11.531Z,1.83
2018-08-24T13:05:41.219Z,1.80
2018-08-24T13:08:10.895Z,2.10
2018-08-24T13:10:40.802Z,1.80
2018-08-24T13:13:10.553Z,1.60
2018-08-24T13:15:40.360Z,1.60
2018-08-24T13:18:10.439Z,1.57
2018-08-24T13:20:42.369Z,1.50
2018-08-24T13:23:12.412Z,2.10
2018-08-24T13:25:42.471Z,2.30
2018-08-24T13:28:12.364Z,1.63
2018-08-24T13:30:42.071Z,1.50
2018-08-24T13:33:12.553Z,1.47
2018-08-24T13:35:42.160Z,1.93
2018-08-24T13:38:11.912Z,1.90
2018-08-24T13:40:54.173Z,1.63
2018-08-24T13:43:41.764Z,1.70
2018-08-24T13:46:27.463Z,1.53
2018-08-24T13:48:57.117Z,1.63
2018-08-24T13:51:29.039Z,1.70
2018-08-24T13:53:58.929Z,1.90
2018-08-24T13:56:28.367Z,1.57
2018-08-24T13:58:57.925Z,1.53
2018-08-24T14:01:27.579Z,1.87
2018-08-24T14:03:57.092Z,1.40
2018-08-24T14:06:27.095Z,1.60
2018-08-24T14:08:56.786Z,1.70
2018-08-24T14:11:26.234Z,1.53
2018-08-24T14:13:55.832Z,1.60
2018-08-24T14:16:25.689Z,1.70
2018-08-24T14:18:55.957Z,1.47
2018-08-24T14:21:25.491Z,1.80
2018-08-24T14:23:56.576Z,1.60
2018-08-24T14:26:26.277Z,1.43
2018-08-24T14:28:56.106Z,1.33
2018-08-24T14:31:25.976Z,1.83
2018-08-24T14:33:57.073Z,2.10
2018-08-24T14:36:26.778Z,2.03
2018-08-24T14:38:56.467Z,1.80
2018-08-24T14:41:26.208Z,2.00
2018-08-24T14:43:56.129Z,1.60
2018-08-24T14:46:25.855Z,1.93
2018-08-24T14:48:55.796Z,1.73
2018-08-24T14:51:25.595Z,2.70
2018-08-24T14:53:55.309Z,1.97
2018-08-24T14:56:25.245Z,2.03
2018-08-24T14:58:55.546Z,3.50
2018-08-24T15:01:25.295Z,2.13
2018-08-24T15:03:54.880Z,2.20
2018-08-24T15:06:25.112Z,2.83
2018-08-24T15:08:54.849Z,2.10
2018-08-24T15:11:24.672Z,1.90
2018-08-24T15:13:54.619Z,1.97
2018-08-24T15:16:24.871Z,1.90
2018-08-24T15:18:54.412Z,1.90
2018-08-24T15:21:23.906Z,1.80
2018-08-24T15:23:53.817Z,1.60
2018-08-24T15:26:23.582Z,1.90
2018-08-24T15:28:53.260Z,1.80
2018-08-24T15:31:22.931Z,2.10
2018-08-24T15:33:53.012Z,1.87
2018-08-24T15:36:22.688Z,2.10
2018-08-24T15:38:52.419Z,1.87
2018-08-24T15:41:22.159Z,1.70
2018-08-24T15:43:55.108Z,2.03
2018-08-24T15:46:24.849Z,1.80
2018-08-24T15:48:54.844Z,2.30
2018-08-24T15:51:24.576Z,1.83
2018-08-24T15:53:54.277Z,2.20
2018-08-24T15:56:23.981Z,2.03
2018-08-24T15:58:53.655Z,1.70
2018-08-24T16:01:23.151Z,2.13
2018-08-24T16:03:53.494Z,2.03
2018-08-24T16:06:23.161Z,2.00
2018-08-24T16:08:54.085Z,2.17
2018-08-24T16:11:23.748Z,2.10
2018-08-24T16:13:53.640Z,2.43
2018-08-24T16:16:23.288Z,2.03
2018-08-24T16:18:53.455Z,2.10
2018-08-24T16:21:23.123Z,2.10
2018-08-24T16:23:52.920Z,2.10
2018-08-24T16:26:24.346Z,2.07
2018-08-24T16:28:55.120Z,1.87
2018-08-24T16:31:24.640Z,1.97
2018-08-24T16:33:54.392Z,2.47
2018-08-24T16:36:24.012Z,2.03
2018-08-24T16:38:54.085Z,1.73
2018-08-24T16:41:23.726Z,2.50
2018-08-24T16:43:53.743Z,1.90
2018-08-24T16:46:23.703Z,2.50
2018-08-24T16:48:53.608Z,2.27
2018-08-24T16:51:23.437Z,2.00
2018-08-24T16:53:53.107Z,2.17
2018-08-24T16:56:22.869Z,1.90
2018-08-24T16:58:54.734Z,2.03
2018-08-24T17:01:37.459Z,2.40
2018-08-24T17:04:06.976Z,2.40
2018-08-24T17:06:36.521Z,1.97
2018-08-24T17:09:11.881Z,2.40
2018-08-24T17:11:41.936Z,1.83
2018-08-24T17:14:11.770Z,2.00
2018-08-24T17:16:41.603Z,2.30
2018-08-24T17:19:11.592Z,2.60
2018-08-24T17:21:41.344Z,2.57
2018-08-24T17:24:11.251Z,2.77
2018-08-24T17:26:41.538Z,2.10
2018-08-24T17:29:12.132Z,2.27
2018-08-24T17:31:42.075Z,2.00
2018-08-24T17:34:17.233Z,1.97
2018-08-24T17:36:47.080Z,2.17
2018-08-24T17:39:17.112Z,1.90
2018-08-24T17:41:47.248Z,2.47
2018-08-24T17:44:16.834Z,2.30
2018-08-24T17:46:46.866Z,2.03
2018-08-24T17:49:17.152Z,2.47
2018-08-24T17:51:46.887Z,2.10
2018-08-24T17:54:18.046Z,2.07
2018-08-24T17:56:48.061Z,2.20
2018-08-24T17:59:19.031Z,2.00
2018-08-24T18:01:48.848Z,2.40
2018-08-24T18:04:18.454Z,1.87
2018-08-24T18:06:48.170Z,1.90
2018-08-24T18:09:23.721Z,2.27
2018-08-24T18:11:53.368Z,1.90
2018-08-24T18:14:22.802Z,1.77
2018-08-24T18:16:52.453Z,1.80
2018-08-24T18:19:27.027Z,1.77
2018-08-24T18:21:56.489Z,1.83
2018-08-24T18:24:26.146Z,2.43
2018-08-24T18:26:55.584Z,2.27
2018-08-24T18:29:25.175Z,2.00
2018-08-24T18:31:54.610Z,2.17
2018-08-24T18:34:36.568Z,2.27
2018-08-24T18:37:06.489Z,1.77
2018-08-24T18:39:36.411Z,1.80
2018-08-24T18:42:06.667Z,2.13
2018-08-24T18:44:36.600Z,2.17
2018-08-24T18:47:06.614Z,1.70
2018-08-24T18:49:37.709Z,1.87
2018-08-24T18:52:07.644Z,1.63
2018-08-24T18:54:37.301Z,2.00
2018-08-24T18:57:07.013Z,1.87
2018-08-24T18:59:36.924Z,2.33
2018-08-24T19:02:07.036Z,2.00
2018-08-24T19:04:49.750Z,2.00
2018-08-24T19:07:19.805Z,2.30
2018-08-24T19:09:49.676Z,1.90
2018-08-24T19:12:25.630Z,1.73
2018-08-24T19:14:56.654Z,2.90
2018-08-24T19:21:52.044Z,2.10
2018-08-24T19:24:22.160Z,2.00
2018-08-24T19:26:54.404Z,1.80
2018-08-24T19:29:30.412Z,3.60
2018-08-24T19:32:01.369Z,1.90
2018-08-24T19:34:32.874Z,1.73
2018-08-24T19:37:02.928Z,2.07
2018-08-24T19:39:34.074Z,2.07
2018-08-24T19:42:16.118Z,1.53
2018-08-24T19:44:47.067Z,1.80
2018-08-24T19:47:21.773Z,1.80
2018-08-24T19:49:51.832Z,1.60
2018-08-24T19:58:51.389Z,1.60
2018-08-24T20:01:23.990Z,1.50
2018-08-24T20:04:13.069Z,1.40
2018-08-24T20:06:59.091Z,2.20
2018-08-24T20:18:13.226Z,2.67
2018-08-24T20:20:52.281Z,2.60
2018-08-24T20:23:31.222Z,1.80
2018-08-24T20:26:20.882Z,1.83
2018-08-24T20:31:33.864Z,1.73
2018-08-24T20:34:13.789Z,1.97
2018-08-24T20:39:40.030Z,1.90
2018-08-24T20:42:10.015Z,1.50
2018-08-24T20:44:39.673Z,1.60
2018-08-24T20:47:09.516Z,1.57
2018-08-24T20:49:40.148Z,1.90
2018-08-24T20:52:15.240Z,1.33
2018-08-24T20:54:45.134Z,1.40
2018-08-24T20:57:14.721Z,1.23
2018-08-24T20:59:44.616Z,1.90
2018-08-24T21:02:14.364Z,1.40
2018-08-24T21:04:44.076Z,1.50
2018-08-24T21:07:13.758Z,1.40
2018-08-24T21:09:46.188Z,1.40
2018-08-24T21:12:15.985Z,1.60
2018-08-24T21:14:46.212Z,1.40
2018-08-24T21:17:15.864Z,1.57
2018-08-24T21:19:45.524Z,1.50
2018-08-24T21:22:15.428Z,1.30
2018-08-24T21:24:54.581Z,1.63
2018-08-24T21:27:24.388Z,1.63
2018-08-24T21:29:54.077Z,1.47
2018-08-24T21:32:23.956Z,1.53
2018-08-24T21:34:53.595Z,1.73
2018-08-24T21:37:23.211Z,2.10
2018-08-24T21:39:54.438Z,1.90
2018-08-24T21:42:23.996Z,1.57
2018-08-24T21:44:53.742Z,1.70
2018-08-24T21:47:36.141Z,2.27
2018-08-24T21:50:06.208Z,1.90
2018-08-24T21:52:36.112Z,1.80
2018-08-24T21:55:05.795Z,1.37
2018-08-24T21:57:35.439Z,1.93
2018-08-24T22:00:06.999Z,1.60
2018-08-24T22:02:36.835Z,1.90
2018-08-24T22:05:06.772Z,1.40
2018-08-24T22:07:36.671Z,1.80
2018-08-24T22:10:14.508Z,1.60
2018-08-24T22:12:44.181Z,1.70
2018-08-24T22:15:14.399Z,1.40
2018-08-24T22:17:49.484Z,1.70
2018-08-24T22:20:18.973Z,2.10
2018-08-24T22:22:48.661Z,1.53
2018-08-24T22:25:18.316Z,1.73
2018-08-24T22:27:47.912Z,1.63
2018-08-24T22:30:17.333Z,1.30
2018-08-24T22:32:47.045Z,1.70
2018-08-24T22:35:16.944Z,1.40
2018-08-24T22:37:46.445Z,1.70
2018-08-24T22:40:16.630Z,1.67
2018-08-24T22:42:46.052Z,1.90
2018-08-24T22:45:15.587Z,1.50
2018-08-24T22:47:45.764Z,1.60
2018-08-24T22:50:15.375Z,1.70
2018-08-24T22:52:44.968Z,1.30
2018-08-24T22:55:14.397Z,1.90
2018-08-24T22:57:45.524Z,1.50
2018-08-24T23:00:15.268Z,1.53
2018-08-24T23:02:45.003Z,2.20
2018-08-24T23:05:14.693Z,1.70
2018-08-24T23:07:44.716Z,1.40
2018-08-24T23:10:14.325Z,1.67
2018-08-24T23:12:43.955Z,1.87
2018-08-24T23:15:19.567Z,1.60
2018-08-24T23:17:50.125Z,1.73
2018-08-24T23:20:19.697Z,1.87
2018-08-24T23:22:49.247Z,1.73
2018-08-24T23:25:19.079Z,1.90
2018-08-24T23:27:48.527Z,1.60
2018-08-24T23:30:22.272Z,2.17
2018-08-24T23:32:51.951Z,2.00
2018-08-24T23:35:21.572Z,1.73
2018-08-24T23:37:51.041Z,1.47
2018-08-24T23:40:20.716Z,1.90
2018-08-24T23:42:50.129Z,1.60
2018-08-24T23:45:32.911Z,1.60
2018-08-24T23:48:02.396Z,1.43
2018-08-24T23:50:32.126Z,1.47
2018-08-24T23:53:01.712Z,1.67
2018-08-24T23:55:31.523Z,1.93
2018-08-24T23:58:00.916Z,1.90
